createdAt,value
2018-09-11T00:01:28.694Z,4.47
2018-09-11T00:03:58.899Z,3.50
2018-09-11T00:06:29.417Z,4.00
2018-09-11T00:09:00.355Z,4.03
2018-09-11T00:11:30.911Z,3.83
2018-09-11T00:14:01.429Z,4.90
2018-09-11T00:16:31.726Z,3.63
2018-09-11T00:19:02.319Z,3.90
2018-09-11T00:21:33.067Z,4.53
2018-09-11T00:24:04.040Z,3.80
2018-09-11T00:26:34.548Z,3.63
2018-09-11T00:29:05.129Z,3.87
2018-09-11T00:31:35.933Z,4.07
2018-09-11T00:34:06.427Z,4.10
2018-09-11T00:36:36.733Z,4.47
2018-09-11T00:39:08.329Z,4.43
2018-09-11T00:41:38.971Z,4.10
2018-09-11T00:44:10.514Z,4.13
2018-09-11T00:46:41.032Z,3.77
2018-09-11T00:49:11.791Z,4.07
2018-09-11T00:51:42.384Z,4.03
2018-09-11T00:54:13.051Z,4.30
2018-09-11T00:56:43.512Z,4.37
2018-09-11T00:59:14.542Z,3.80
2018-09-11T01:01:44.747Z,4.63
2018-09-11T01:04:15.301Z,4.40
2018-09-11T01:06:46.289Z,3.90
2018-09-11T01:09:16.889Z,4.10
2018-09-11T01:11:47.524Z,3.50
2018-09-11T01:14:18.778Z,4.10
2018-09-11T01:16:49.078Z,3.73
2018-09-11T01:19:19.595Z,4.50
2018-09-11T01:21:50.083Z,3.73
2018-09-11T01:24:20.744Z,4.23
2018-09-11T01:26:51.265Z,3.30
2018-09-11T01:29:22.462Z,4.30
2018-09-11T01:31:53.059Z,3.80
2018-09-11T01:34:23.485Z,4.57
2018-09-11T01:36:54.375Z,4.20
2018-09-11T01:39:25.194Z,4.70
2018-09-11T01:41:55.844Z,4.10
2018-09-11T01:44:26.516Z,4.07
2018-09-11T01:46:56.987Z,4.30
2018-09-11T01:49:27.891Z,3.73
2018-09-11T01:51:58.147Z,4.10
2018-09-11T01:54:28.817Z,3.50
2018-09-11T01:56:59.355Z,4.17
2018-09-11T01:59:29.897Z,3.67
2018-09-11T02:02:00.087Z,4.07
2018-09-11T02:04:30.277Z,4.30
2018-09-11T02:07:00.496Z,3.93
2018-09-11T02:09:30.979Z,4.13
2018-09-11T02:12:01.298Z,3.80
2018-09-11T02:14:31.992Z,3.60
2018-09-11T02:17:02.680Z,3.93
2018-09-11T02:19:33.267Z,4.70
2018-09-11T02:22:04.025Z,4.23
2018-09-11T02:24:34.303Z,3.83
2018-09-11T02:27:05.878Z,4.10
2018-09-11T02:29:36.371Z,4.57
2018-09-11T02:32:06.916Z,4.20
2018-09-11T02:34:37.445Z,5.10
2018-09-11T02:37:07.941Z,4.20
2018-09-11T02:39:38.151Z,4.63
2018-09-11T02:42:08.420Z,3.83
2018-09-11T02:44:38.995Z,4.43
2018-09-11T02:47:13.478Z,3.73
2018-09-11T02:49:44.075Z,3.87
2018-09-11T02:52:14.595Z,3.90
2018-09-11T02:54:45.448Z,3.97
2018-09-11T02:57:15.906Z,4.00
2018-09-11T02:59:46.483Z,4.50
2018-09-11T03:02:17.092Z,4.00
2018-09-11T03:04:47.322Z,5.30
2018-09-11T03:07:17.816Z,5.27
2018-09-11T03:09:48.573Z,4.80
2018-09-11T03:12:19.092Z,4.27
2018-09-11T03:14:49.629Z,4.53
2018-09-11T03:17:20.172Z,4.73
2018-09-11T03:19:50.607Z,4.30
2018-09-11T03:22:20.895Z,5.70
2018-09-11T03:24:51.559Z,5.10
2018-09-11T03:27:22.148Z,4.13
2018-09-11T03:29:52.773Z,4.70
2018-09-11T03:32:23.318Z,4.20
2018-09-11T03:34:54.178Z,4.13
2018-09-11T03:37:25.043Z,4.60
2018-09-11T03:39:56.146Z,4.33
2018-09-11T03:42:26.919Z,4.60
2018-09-11T03:44:57.520Z,4.50
2018-09-11T03:47:28.047Z,4.10
2018-09-11T03:49:58.548Z,4.90
2018-09-11T03:52:29.121Z,4.50
2018-09-11T03:54:59.607Z,4.57
2018-09-11T03:57:30.093Z,4.97
2018-09-11T04:00:00.646Z,4.80
2018-09-11T04:02:32.103Z,4.87
2018-09-11T04:05:02.349Z,4.80
2018-09-11T04:07:32.625Z,4.70
2018-09-11T04:10:03.485Z,4.77
2018-09-11T04:12:34.298Z,4.00
2018-09-11T04:15:05.545Z,4.67
2018-09-11T04:17:42.316Z,4.90
2018-09-11T04:20:12.791Z,5.03
2018-09-11T04:22:44.092Z,5.30
2018-09-11T04:25:14.608Z,4.77
2018-09-11T04:27:51.528Z,4.70
2018-09-11T04:30:22.087Z,4.70
2018-09-11T04:32:52.553Z,5.10
2018-09-11T04:35:23.104Z,4.47
2018-09-11T04:37:53.965Z,5.27
2018-09-11T04:40:24.463Z,4.87
2018-09-11T04:42:55.174Z,5.47
2018-09-11T04:45:25.911Z,4.57
2018-09-11T04:47:56.564Z,4.30
2018-09-11T04:50:27.267Z,5.40
2018-09-11T04:52:57.760Z,4.90
2018-09-11T04:55:29.240Z,4.73
2018-09-11T04:58:00.092Z,4.53
2018-09-11T05:00:30.600Z,4.03
2018-09-11T05:03:01.166Z,5.37
2018-09-11T05:05:31.840Z,4.47
2018-09-11T05:08:02.499Z,5.10
2018-09-11T05:10:33.283Z,4.93
2018-09-11T05:13:03.920Z,4.80
2018-09-11T05:15:34.428Z,5.40
2018-09-11T05:18:04.709Z,4.60
2018-09-11T05:20:34.919Z,4.83
2018-09-11T05:23:05.692Z,5.53
2018-09-11T05:25:35.968Z,5.07
2018-09-11T05:28:06.529Z,4.73
2018-09-11T05:30:37.587Z,4.83
2018-09-11T05:33:08.637Z,4.97
2018-09-11T05:35:38.995Z,4.57
2018-09-11T05:38:10.152Z,4.57
2018-09-11T05:40:40.765Z,4.77
2018-09-11T05:43:11.332Z,5.17
2018-09-11T05:45:41.643Z,4.60
2018-09-11T05:48:11.902Z,4.40
2018-09-11T05:50:42.490Z,5.50
2018-09-11T05:53:13.286Z,4.87
2018-09-11T05:55:43.850Z,4.90
2018-09-11T05:58:14.437Z,5.60
2018-09-11T06:00:45.055Z,5.20
2018-09-11T06:03:15.708Z,4.77
2018-09-11T06:05:46.411Z,4.37
2018-09-11T06:08:17.075Z,4.93
2018-09-11T06:10:47.807Z,5.53
2018-09-11T06:13:19.329Z,5.10
2018-09-11T06:15:50.202Z,4.70
2018-09-11T06:18:21.037Z,4.47
2018-09-11T06:20:52.673Z,4.33
2018-09-11T06:23:31.936Z,4.23
2018-09-11T06:26:02.460Z,4.10
2018-09-11T06:28:33.038Z,4.30
2018-09-11T06:31:03.815Z,4.27
2018-09-11T06:33:35.633Z,4.60
2018-09-11T06:36:06.438Z,3.93
2018-09-11T06:38:37.091Z,4.90
2018-09-11T06:41:07.877Z,4.03
2018-09-11T06:43:38.508Z,3.93
2018-09-11T06:46:09.103Z,4.63
2018-09-11T06:48:39.389Z,4.70
2018-09-11T06:51:10.235Z,5.50
2018-09-11T06:53:41.048Z,3.83
2018-09-11T06:56:11.419Z,4.00
2018-09-11T06:58:43.172Z,4.10
2018-09-11T07:01:13.766Z,4.60
2018-09-11T07:03:44.117Z,3.70
2018-09-11T07:06:14.328Z,4.10
2018-09-11T07:08:44.875Z,3.90
2018-09-11T07:11:15.404Z,3.80
2018-09-11T07:13:45.669Z,4.47
2018-09-11T07:16:15.996Z,4.07
2018-09-11T07:18:46.647Z,4.30
2018-09-11T07:21:17.295Z,4.23
2018-09-11T07:23:47.789Z,4.47
2018-09-11T07:26:18.538Z,4.60
2018-09-11T07:28:49.048Z,4.23
2018-09-11T07:31:19.695Z,3.80
2018-09-11T07:33:51.101Z,4.80
2018-09-11T07:36:22.835Z,5.50
2018-09-11T07:38:53.652Z,4.50
2018-09-11T07:41:24.171Z,4.77
2018-09-11T07:43:54.595Z,4.70
2018-09-11T07:46:25.104Z,4.97
2018-09-11T07:48:55.907Z,4.93
2018-09-11T07:51:26.524Z,4.77
2018-09-11T07:53:57.155Z,4.80
2018-09-11T07:56:27.723Z,4.80
2018-09-11T07:58:58.229Z,4.30
2018-09-11T08:01:28.892Z,4.43
2018-09-11T08:03:59.657Z,3.77
2018-09-11T08:06:29.874Z,3.90
2018-09-11T08:09:00.447Z,3.80
2018-09-11T08:11:31.010Z,4.40
2018-09-11T08:14:01.314Z,4.33
2018-09-11T08:16:31.633Z,3.63
2018-09-11T08:19:02.446Z,4.77
2018-09-11T08:21:32.968Z,4.63
2018-09-11T08:24:03.476Z,4.03
2018-09-11T08:26:34.176Z,3.83
2018-09-11T08:29:05.023Z,5.97
2018-09-11T08:31:35.587Z,3.60
2018-09-11T08:34:06.321Z,5.57
2018-09-11T08:36:36.784Z,5.30
2018-09-11T08:39:09.713Z,5.30
2018-09-11T08:41:40.364Z,3.70
2018-09-11T08:44:11.046Z,4.03
2018-09-11T08:46:41.297Z,3.90
2018-09-11T08:49:12.237Z,3.70
2018-09-11T08:51:43.032Z,3.67
2018-09-11T08:54:13.727Z,3.50
2018-09-11T08:56:44.288Z,3.83
2018-09-11T08:59:14.607Z,3.70
2018-09-11T09:01:45.108Z,3.33
2018-09-11T09:04:15.820Z,3.57
2018-09-11T09:06:46.335Z,3.70
2018-09-11T09:09:16.837Z,5.00
2018-09-11T09:11:47.982Z,3.60
2018-09-11T09:14:18.736Z,3.70
2018-09-11T09:16:49.304Z,3.40
2018-09-11T09:19:19.944Z,3.20
2018-09-11T09:21:51.437Z,3.60
2018-09-11T09:24:21.759Z,3.23
2018-09-11T09:26:52.628Z,3.57
2018-09-11T09:29:23.152Z,3.70
2018-09-11T09:31:54.878Z,3.90
2018-09-11T09:34:25.472Z,3.43
2018-09-11T09:36:57.248Z,3.70
2018-09-11T09:39:28.460Z,3.20
2018-09-11T09:41:59.174Z,3.50
2018-09-11T09:44:29.811Z,3.20
2018-09-11T09:47:00.212Z,3.67
2018-09-11T09:49:30.747Z,3.47
2018-09-11T09:52:01.237Z,3.40
2018-09-11T09:54:31.726Z,3.93
2018-09-11T09:57:02.109Z,3.23
2018-09-11T09:59:32.812Z,4.13
2018-09-11T10:02:05.002Z,3.70
2018-09-11T10:04:35.197Z,3.50
2018-09-11T10:07:05.807Z,3.60
2018-09-11T10:09:36.392Z,3.70
2018-09-11T10:12:06.888Z,3.73
2018-09-11T10:14:37.430Z,3.33
2018-09-11T10:17:08.624Z,4.00
2018-09-11T10:19:39.384Z,3.73
2018-09-11T10:22:09.976Z,3.30
2018-09-11T10:24:40.723Z,3.73
2018-09-11T10:27:12.050Z,3.50
2018-09-11T10:29:42.652Z,3.60
2018-09-11T10:32:13.150Z,3.50
2018-09-11T10:34:43.816Z,3.40
2018-09-11T10:37:14.339Z,3.77
2018-09-11T10:39:44.918Z,4.40
2018-09-11T10:42:15.739Z,3.77
2018-09-11T10:44:46.308Z,3.87
2018-09-11T10:47:17.225Z,3.90
2018-09-11T10:49:47.808Z,4.07
2018-09-11T10:52:18.548Z,3.67
2018-09-11T10:54:49.276Z,4.10
2018-09-11T10:57:19.492Z,4.17
2018-09-11T10:59:50.034Z,3.70
2018-09-11T11:02:20.272Z,3.70
2018-09-11T11:04:50.972Z,3.97
2018-09-11T11:07:21.493Z,4.40
2018-09-11T11:09:52.029Z,4.20
2018-09-11T11:12:22.626Z,4.00
2018-09-11T11:14:57.339Z,3.90
2018-09-11T11:17:27.964Z,3.53
2018-09-11T11:19:58.598Z,3.50
2018-09-11T11:22:29.292Z,3.50
2018-09-11T11:25:00.535Z,3.60
2018-09-11T11:27:30.780Z,3.73
2018-09-11T11:30:01.374Z,3.83
2018-09-11T11:32:32.433Z,4.00
2018-09-11T11:35:03.266Z,4.00
2018-09-11T11:37:34.213Z,3.77
2018-09-11T11:40:05.536Z,3.90
2018-09-11T11:42:36.051Z,3.63
2018-09-11T11:45:07.325Z,4.07
2018-09-11T11:47:37.863Z,4.17
2018-09-11T11:50:12.230Z,4.60
2018-09-11T11:52:42.788Z,4.27
2018-09-11T11:55:13.422Z,4.07
2018-09-11T11:57:44.655Z,4.03
2018-09-11T12:00:15.284Z,4.27
2018-09-11T12:02:45.879Z,4.60
2018-09-11T12:05:16.709Z,4.10
2018-09-11T12:07:47.135Z,4.07
2018-09-11T12:10:17.615Z,4.73
2018-09-11T12:12:48.135Z,4.03
2018-09-11T12:15:18.375Z,3.77
2018-09-11T12:17:48.661Z,4.43
2018-09-11T12:20:18.950Z,3.97
2018-09-11T12:22:49.237Z,3.67
2018-09-11T12:25:19.630Z,4.53
2018-09-11T12:27:50.638Z,4.40
2018-09-11T12:30:21.472Z,4.20
2018-09-11T12:32:51.997Z,3.53
2018-09-11T12:35:22.302Z,4.40
2018-09-11T12:37:54.575Z,3.73
2018-09-11T12:40:25.080Z,4.47
2018-09-11T12:42:56.144Z,3.93
2018-09-11T12:45:26.789Z,4.27
2018-09-11T12:47:57.511Z,4.27
2018-09-11T12:50:27.904Z,3.80
2018-09-11T12:52:58.513Z,4.23
2018-09-11T12:55:29.217Z,4.13
2018-09-11T12:58:01.308Z,4.00
2018-09-11T13:00:33.358Z,4.10
2018-09-11T13:03:03.932Z,4.10
2018-09-11T13:05:36.568Z,4.40
2018-09-11T13:08:08.732Z,3.30
2018-09-11T13:10:39.424Z,3.67
2018-09-11T13:13:09.920Z,4.43
2018-09-11T13:15:43.052Z,3.70
2018-09-11T13:18:15.334Z,3.87
2018-09-11T13:20:46.519Z,4.43
2018-09-11T13:23:17.737Z,3.20
2018-09-11T13:25:48.334Z,4.17
2018-09-11T13:28:19.323Z,3.87
2018-09-11T13:30:52.784Z,4.10
2018-09-11T13:33:23.368Z,3.30
2018-09-11T13:35:54.215Z,4.10
2018-09-11T13:38:24.750Z,4.73
2018-09-11T13:40:55.460Z,4.10
2018-09-11T13:43:25.948Z,3.97
2018-09-11T13:45:56.545Z,4.03
2018-09-11T13:48:27.184Z,4.53
2018-09-11T13:50:57.701Z,4.17
2018-09-11T13:53:28.303Z,5.07
2018-09-11T13:55:59.003Z,4.27
2018-09-11T13:58:29.670Z,4.53
2018-09-11T14:01:00.182Z,4.07
2018-09-11T14:03:30.546Z,4.60
2018-09-11T14:06:01.861Z,4.10
2018-09-11T14:08:32.519Z,4.50
2018-09-11T14:11:03.345Z,4.83
2018-09-11T14:13:35.124Z,4.23
2018-09-11T14:16:05.629Z,4.00
2018-09-11T14:18:36.238Z,3.90
2018-09-11T14:21:07.410Z,4.10
2018-09-11T14:23:37.960Z,4.27
2018-09-11T14:26:09.089Z,4.60
2018-09-11T14:28:39.869Z,4.50
2018-09-11T14:31:10.162Z,4.10
2018-09-11T14:33:40.729Z,5.13
2018-09-11T14:36:11.902Z,4.50
2018-09-11T14:38:42.487Z,4.87
2018-09-11T14:41:12.997Z,4.20
2018-09-11T14:43:44.408Z,5.47
2018-09-11T14:46:16.108Z,4.73
2018-09-11T14:48:46.698Z,4.67
2018-09-11T14:51:17.222Z,4.67
2018-09-11T14:53:47.803Z,4.83
2018-09-11T14:56:19.168Z,5.20
2018-09-11T14:58:50.033Z,5.33
2018-09-11T15:01:20.530Z,4.60
2018-09-11T15:03:51.245Z,4.57
2018-09-11T15:06:22.346Z,5.10
2018-09-11T15:08:53.485Z,4.60
2018-09-11T15:11:24.508Z,5.07
2018-09-11T15:13:55.503Z,5.47
2018-09-11T15:16:26.326Z,4.90
2018-09-11T15:18:57.732Z,4.60
2018-09-11T15:21:28.503Z,5.10
2018-09-11T15:23:59.009Z,4.93
2018-09-11T15:26:30.819Z,4.57
2018-09-11T15:29:01.909Z,5.20
2018-09-11T15:31:37.326Z,4.37
2018-09-11T15:34:07.846Z,5.43
2018-09-11T15:36:38.080Z,5.60
2018-09-11T15:39:11.034Z,4.80
2018-09-11T15:41:41.564Z,5.30
2018-09-11T15:44:12.060Z,5.03
2018-09-11T15:46:42.492Z,4.90
2018-09-11T15:49:17.257Z,4.43
2018-09-11T15:51:47.942Z,5.30
2018-09-11T15:54:21.580Z,4.03
2018-09-11T15:56:52.517Z,4.83
2018-09-11T15:59:23.805Z,4.90
2018-09-11T16:04:35.671Z,4.70
2018-09-11T16:07:06.028Z,5.60
2018-09-11T16:09:36.765Z,5.00
2018-09-11T16:12:07.483Z,5.67
2018-09-11T16:14:38.539Z,5.27
2018-09-11T16:17:10.797Z,4.80
2018-09-11T16:19:41.551Z,5.10
2018-09-11T16:22:12.214Z,4.90
2018-09-11T16:24:42.950Z,5.30
2018-09-11T16:27:13.560Z,4.70
2018-09-11T16:29:44.160Z,4.43
2018-09-11T16:32:15.125Z,4.20
2018-09-11T16:34:47.394Z,4.70
2018-09-11T16:37:18.014Z,5.83
2018-09-11T16:39:48.603Z,4.23
2018-09-11T16:42:19.209Z,5.10
2018-09-11T16:44:50.237Z,5.23
2018-09-11T16:47:20.862Z,4.00
2018-09-11T16:49:51.577Z,4.73
2018-09-11T16:52:21.864Z,4.70
2018-09-11T16:54:53.272Z,4.70
2018-09-11T16:57:23.949Z,3.83
2018-09-11T16:59:54.303Z,4.60
2018-09-11T17:02:24.960Z,3.87
2018-09-11T17:04:55.626Z,3.97
2018-09-11T17:07:25.981Z,4.33
2018-09-11T17:09:56.695Z,4.40
2018-09-11T17:12:27.201Z,4.10
2018-09-11T17:15:00.755Z,4.33
2018-09-11T17:17:34.781Z,4.77
2018-09-11T17:20:05.420Z,4.77
2018-09-11T17:22:36.726Z,4.20
2018-09-11T17:25:07.536Z,4.43
2018-09-11T17:27:38.499Z,4.20
2018-09-11T17:30:09.906Z,4.50
2018-09-11T17:32:40.125Z,4.27
2018-09-11T17:35:10.597Z,4.70
2018-09-11T17:37:41.293Z,4.90
2018-09-11T17:40:11.836Z,4.90
2018-09-11T17:42:42.329Z,3.90
2018-09-11T17:45:13.009Z,4.03
2018-09-11T17:47:43.819Z,5.67
2018-09-11T17:50:14.271Z,4.60
2018-09-11T17:52:44.657Z,4.40
2018-09-11T17:55:17.072Z,4.60
2018-09-11T17:57:47.688Z,4.60
2018-09-11T18:00:18.353Z,4.37
2018-09-11T18:02:49.133Z,4.40
2018-09-11T18:05:19.754Z,4.80
2018-09-11T18:07:50.278Z,3.97
2018-09-11T18:10:20.845Z,5.00
2018-09-11T18:12:51.117Z,4.73
2018-09-11T18:15:22.482Z,4.53
2018-09-11T18:17:53.353Z,4.33
2018-09-11T18:20:23.967Z,4.93
2018-09-11T18:22:54.688Z,4.87
2018-09-11T18:25:24.922Z,4.67
2018-09-11T18:27:55.453Z,5.10
2018-09-11T18:30:25.964Z,5.93
2018-09-11T18:32:56.508Z,4.80
2018-09-11T18:35:27.434Z,5.50
2018-09-11T18:37:58.189Z,5.47
2018-09-11T18:40:28.698Z,5.60
2018-09-11T18:42:59.171Z,4.60
2018-09-11T18:45:30.683Z,5.10
2018-09-11T18:48:02.180Z,6.20
2018-09-11T18:50:32.989Z,5.90
2018-09-11T18:53:03.601Z,5.47
2018-09-11T18:55:34.048Z,5.47
2018-09-11T18:58:04.625Z,5.00
2018-09-11T19:00:35.044Z,5.40
2018-09-11T19:03:06.244Z,4.87
2018-09-11T19:05:36.765Z,6.07
2018-09-11T19:08:08.767Z,4.93
2018-09-11T19:10:38.992Z,5.50
2018-09-11T19:13:11.575Z,5.63
2018-09-11T19:15:42.177Z,4.90
2018-09-11T19:18:13.173Z,6.60
2018-09-11T19:20:43.944Z,5.40
2018-09-11T19:23:14.454Z,4.83
2018-09-11T19:25:44.696Z,6.17
2018-09-11T19:28:15.579Z,6.23
2018-09-11T19:30:47.333Z,4.90
2018-09-11T19:33:18.437Z,4.77
2018-09-11T19:35:48.952Z,5.90
2018-09-11T19:38:19.530Z,5.57
2018-09-11T19:40:50.018Z,6.47
2018-09-11T19:43:20.536Z,5.93
2018-09-11T19:45:51.122Z,5.67
2018-09-11T19:48:22.002Z,5.33
2018-09-11T19:50:52.761Z,4.87
2018-09-11T19:53:23.350Z,6.10
2018-09-11T19:55:53.839Z,4.33
2018-09-11T19:58:24.039Z,4.90
2018-09-11T20:00:54.898Z,5.67
2018-09-11T20:03:25.717Z,5.03
2018-09-11T20:05:55.940Z,5.53
2018-09-11T20:08:26.476Z,4.73
2018-09-11T20:10:57.760Z,5.23
2018-09-11T20:13:28.315Z,5.00
2018-09-11T20:15:58.925Z,4.23
2018-09-11T20:18:29.804Z,4.80
2018-09-11T20:21:00.364Z,5.20
2018-09-11T20:23:38.017Z,5.70
2018-09-11T20:26:08.238Z,4.87
2018-09-11T20:28:40.475Z,5.33
2018-09-11T20:31:13.149Z,5.17
2018-09-11T20:33:43.659Z,5.47
2018-09-11T20:36:14.392Z,5.33
2018-09-11T20:38:46.270Z,5.00
2018-09-11T20:41:17.481Z,4.47
2018-09-11T20:43:56.722Z,5.33
2018-09-11T20:46:29.784Z,5.70
2018-09-11T20:49:00.625Z,4.83
2018-09-11T20:51:31.240Z,5.30
2018-09-11T20:54:05.809Z,5.70
2018-09-11T20:56:37.825Z,5.10
2018-09-11T20:59:10.242Z,5.33
2018-09-11T21:01:42.977Z,5.70
2018-09-11T21:04:15.655Z,5.30
2018-09-11T21:06:48.267Z,5.03
2018-09-11T21:09:18.840Z,5.10
2018-09-11T21:11:49.503Z,5.10
2018-09-11T21:14:19.745Z,6.03
2018-09-11T21:16:51.120Z,5.13
2018-09-11T21:19:21.666Z,4.83
2018-09-11T21:21:52.400Z,4.83
2018-09-11T21:24:22.930Z,5.00
2018-09-11T21:26:53.600Z,5.07
2018-09-11T21:29:24.971Z,5.20
2018-09-11T21:31:57.906Z,4.90
2018-09-11T21:34:30.923Z,5.10
2018-09-11T21:37:02.476Z,5.57
2018-09-11T21:39:33.266Z,4.63
2018-09-11T21:42:03.875Z,5.40
2018-09-11T21:44:34.539Z,5.80
2018-09-11T21:47:05.642Z,5.30
2018-09-11T21:49:36.144Z,5.00
2018-09-11T21:52:06.930Z,5.47
2018-09-11T21:54:37.881Z,5.57
2018-09-11T21:57:09.176Z,5.30
2018-09-11T21:59:40.595Z,5.67
2018-09-11T22:02:11.875Z,5.70
2018-09-11T22:04:42.152Z,5.67
2018-09-11T22:07:13.620Z,5.23
2018-09-11T22:09:45.383Z,5.63
2018-09-11T22:12:16.196Z,5.60
2018-09-11T22:14:46.841Z,5.60
2018-09-11T22:17:17.419Z,5.30
2018-09-11T22:19:47.956Z,5.90
2018-09-11T22:22:19.391Z,4.93
2018-09-11T22:24:49.670Z,6.10
2018-09-11T22:27:21.457Z,6.00
2018-09-11T22:29:53.233Z,6.60
2018-09-11T22:32:28.220Z,6.30
2018-09-11T22:34:59.643Z,6.90
2018-09-11T22:37:31.284Z,6.37
2018-09-11T22:40:01.550Z,5.00
2018-09-11T22:42:32.342Z,5.70
2018-09-11T22:45:05.357Z,6.17
2018-09-11T22:47:36.160Z,6.40
2018-09-11T22:50:06.813Z,6.20
2018-09-11T22:52:37.534Z,5.97
2018-09-11T22:55:10.032Z,8.03
2018-09-11T22:57:40.453Z,7.77
2018-09-11T23:00:10.676Z,7.03
2018-09-11T23:02:41.314Z,7.37
2018-09-11T23:05:13.012Z,7.07
2018-09-11T23:07:43.279Z,7.50
2018-09-11T23:10:13.800Z,6.60
2018-09-11T23:12:44.569Z,6.13
2018-09-11T23:15:15.311Z,6.90
2018-09-11T23:17:45.556Z,6.50
2018-09-11T23:20:16.153Z,6.73
2018-09-11T23:22:47.109Z,6.30
2018-09-11T23:25:17.348Z,6.90
2018-09-11T23:27:47.848Z,6.30
2018-09-11T23:30:18.539Z,7.33
2018-09-11T23:32:48.789Z,6.87
2018-09-11T23:35:19.056Z,6.73
2018-09-11T23:37:49.447Z,6.47
2018-09-11T23:40:20.304Z,7.30
2018-09-11T23:42:50.856Z,10.43
2018-09-11T23:45:21.520Z,6.23
2018-09-11T23:47:51.799Z,8.67
2018-09-11T23:50:22.236Z,8.40
2018-09-11T23:52:52.485Z,7.20
2018-09-11T23:55:22.701Z,7.50
2018-09-11T23:57:53.523Z,6.50
